sensor_id;sensor_type;location;lat;lon;timestamp;P1;durP1;ratioP1;P2;durP2;ratioP2
61391;SDS011;47261;52.892;5.738;2022-09-23T00:00:01;21.67;;;11.15;;
61391;SDS011;47261;52.892;5.738;2022-09-23T00:02:28;18.63;;;10.47;;
61391;SDS011;47261;52.892;5.738;2022-09-23T00:04:54;16.15;;;11.20;;
61391;SDS011;47261;52.892;5.738;2022-09-23T00:07:19;19.47;;;11.27;;
61391;SDS011;47261;52.892;5.738;2022-09-23T00:09:45;22.63;;;11.93;;
61391;SDS011;47261;52.892;5.738;2022-09-23T00:12:11;18.97;;;12.60;;
61391;SDS011;47261;52.892;5.738;2022-09-23T00:14:37;20.38;;;11.40;;
61391;SDS011;47261;52.892;5.738;2022-09-23T00:17:03;17.10;;;11.53;;
61391;SDS011;47261;52.892;5.738;2022-09-23T00:19:29;19.55;;;12.30;;
61391;SDS011;47261;52.892;5.738;2022-09-23T00:21:54;19.20;;;12.53;;
61391;SDS011;47261;52.892;5.738;2022-09-23T00:24:21;18.92;;;12.60;;
61391;SDS011;47261;52.892;5.738;2022-09-23T00:26:48;17.92;;;12.57;;
61391;SDS011;47261;52.892;5.738;2022-09-23T00:29:14;19.07;;;12.33;;
61391;SDS011;47261;52.892;5.738;2022-09-23T00:31:40;21.35;;;12.13;;
61391;SDS011;47261;52.892;5.738;2022-09-23T00:34:05;20.80;;;12.02;;
61391;SDS011;47261;52.892;5.738;2022-09-23T00:36:34;19.58;;;12.43;;
61391;SDS011;47261;52.892;5.738;2022-09-23T00:39:00;19.43;;;12.17;;
61391;SDS011;47261;52.892;5.738;2022-09-23T00:41:27;18.33;;;12.00;;
61391;SDS011;47261;52.892;5.738;2022-09-23T00:43:56;19.97;;;11.97;;
61391;SDS011;47261;52.892;5.738;2022-09-23T00:48:54;19.20;;;11.80;;
61391;SDS011;47261;52.892;5.738;2022-09-23T00:51:26;18.80;;;11.05;;
61391;SDS011;47261;52.892;5.738;2022-09-23T00:53:57;18.87;;;12.47;;
61391;SDS011;47261;52.892;5.738;2022-09-23T00:56:23;21.38;;;12.00;;
61391;SDS011;47261;52.892;5.738;2022-09-23T00:58:49;20.77;;;12.13;;
61391;SDS011;47261;52.892;5.738;2022-09-23T01:01:15;19.17;;;12.38;;
61391;SDS011;47261;52.892;5.738;2022-09-23T01:03:42;19.87;;;11.73;;
61391;SDS011;47261;52.892;5.738;2022-09-23T01:06:09;20.13;;;11.98;;
61391;SDS011;47261;52.892;5.738;2022-09-23T01:08:35;18.95;;;11.48;;
61391;SDS011;47261;52.892;5.738;2022-09-23T01:24:09;22.60;;;12.82;;
61391;SDS011;47261;52.892;5.738;2022-09-23T01:26:43;20.53;;;11.57;;
61391;SDS011;47261;52.892;5.738;2022-09-23T01:34:47;22.38;;;12.68;;
61391;SDS011;47261;52.892;5.738;2022-09-23T01:37:22;21.55;;;11.60;;
61391;SDS011;47261;52.892;5.738;2022-09-23T01:39:58;20.47;;;11.07;;
61391;SDS011;47261;52.892;5.738;2022-09-23T01:42:41;20.15;;;11.95;;
61391;SDS011;47261;52.892;5.738;2022-09-23T01:45:24;22.25;;;12.73;;
61391;SDS011;47261;52.892;5.738;2022-09-23T01:51:07;22.83;;;12.35;;
61391;SDS011;47261;52.892;5.738;2022-09-23T01:56:06;22.52;;;13.75;;
61391;SDS011;47261;52.892;5.738;2022-09-23T01:58:45;24.70;;;13.93;;
61391;SDS011;47261;52.892;5.738;2022-09-23T02:01:14;20.90;;;13.15;;
61391;SDS011;47261;52.892;5.738;2022-09-23T02:03:50;23.35;;;12.95;;
61391;SDS011;47261;52.892;5.738;2022-09-23T02:06:33;20.83;;;13.57;;
61391;SDS011;47261;52.892;5.738;2022-09-23T02:09:04;23.60;;;13.18;;
61391;SDS011;47261;52.892;5.738;2022-09-23T02:11:35;21.05;;;11.85;;
61391;SDS011;47261;52.892;5.738;2022-09-23T02:14:08;23.23;;;13.15;;
61391;SDS011;47261;52.892;5.738;2022-09-23T02:16:53;27.50;;;14.57;;
61391;SDS011;47261;52.892;5.738;2022-09-23T02:22:11;27.92;;;15.02;;
61391;SDS011;47261;52.892;5.738;2022-09-23T02:24:52;27.75;;;14.50;;
61391;SDS011;47261;52.892;5.738;2022-09-23T02:27:31;28.52;;;14.95;;
61391;SDS011;47261;52.892;5.738;2022-09-23T02:30:16;25.95;;;14.65;;
61391;SDS011;47261;52.892;5.738;2022-09-23T02:35:15;27.17;;;16.95;;
61391;SDS011;47261;52.892;5.738;2022-09-23T02:43:21;29.88;;;17.50;;
61391;SDS011;47261;52.892;5.738;2022-09-23T02:45:48;30.73;;;17.57;;
61391;SDS011;47261;52.892;5.738;2022-09-23T02:48:19;28.58;;;17.25;;
61391;SDS011;47261;52.892;5.738;2022-09-23T02:50:56;30.83;;;18.67;;
61391;SDS011;47261;52.892;5.738;2022-09-23T02:53:26;33.00;;;19.08;;
61391;SDS011;47261;52.892;5.738;2022-09-23T02:55:53;30.70;;;18.20;;
61391;SDS011;47261;52.892;5.738;2022-09-23T02:58:19;29.07;;;17.47;;
61391;SDS011;47261;52.892;5.738;2022-09-23T03:06:26;30.70;;;17.02;;
61391;SDS011;47261;52.892;5.738;2022-09-23T03:09:24;30.35;;;18.02;;
61391;SDS011;47261;52.892;5.738;2022-09-23T03:15:00;29.97;;;18.07;;
61391;SDS011;47261;52.892;5.738;2022-09-23T03:17:50;32.60;;;18.42;;
61391;SDS011;47261;52.892;5.738;2022-09-23T03:20:25;28.98;;;17.25;;
61391;SDS011;47261;52.892;5.738;2022-09-23T03:22:59;29.42;;;17.40;;
61391;SDS011;47261;52.892;5.738;2022-09-23T03:25:29;32.22;;;17.92;;
61391;SDS011;47261;52.892;5.738;2022-09-23T03:27:57;30.73;;;17.87;;
61391;SDS011;47261;52.892;5.738;2022-09-23T03:30:24;33.53;;;17.98;;
61391;SDS011;47261;52.892;5.738;2022-09-23T03:32:51;32.10;;;17.60;;
61391;SDS011;47261;52.892;5.738;2022-09-23T03:35:18;31.42;;;16.80;;
61391;SDS011;47261;52.892;5.738;2022-09-23T03:37:52;30.30;;;17.80;;
61391;SDS011;47261;52.892;5.738;2022-09-23T03:40:30;29.27;;;16.77;;
61391;SDS011;47261;52.892;5.738;2022-09-23T03:42:59;32.70;;;17.05;;
61391;SDS011;47261;52.892;5.738;2022-09-23T03:45:29;30.75;;;16.80;;
61391;SDS011;47261;52.892;5.738;2022-09-23T03:47:57;27.58;;;15.43;;
61391;SDS011;47261;52.892;5.738;2022-09-23T03:50:23;30.07;;;16.93;;
61391;SDS011;47261;52.892;5.738;2022-09-23T03:52:49;26.35;;;16.02;;
61391;SDS011;47261;52.892;5.738;2022-09-23T03:55:15;31.33;;;16.90;;
61391;SDS011;47261;52.892;5.738;2022-09-23T03:57:42;26.17;;;14.63;;
61391;SDS011;47261;52.892;5.738;2022-09-23T04:00:09;28.42;;;15.57;;
61391;SDS011;47261;52.892;5.738;2022-09-23T04:02:36;32.63;;;16.05;;
61391;SDS011;47261;52.892;5.738;2022-09-23T04:05:02;29.77;;;15.98;;
61391;SDS011;47261;52.892;5.738;2022-09-23T04:07:28;28.53;;;15.90;;
61391;SDS011;47261;52.892;5.738;2022-09-23T04:09:54;28.98;;;15.73;;
61391;SDS011;47261;52.892;5.738;2022-09-23T04:12:19;26.27;;;15.07;;
61391;SDS011;47261;52.892;5.738;2022-09-23T04:14:45;29.05;;;15.45;;
61391;SDS011;47261;52.892;5.738;2022-09-23T04:17:11;26.90;;;14.70;;
61391;SDS011;47261;52.892;5.738;2022-09-23T04:19:37;29.83;;;15.90;;
61391;SDS011;47261;52.892;5.738;2022-09-23T04:22:03;26.00;;;15.02;;
61391;SDS011;47261;52.892;5.738;2022-09-23T04:24:29;27.73;;;15.83;;
61391;SDS011;47261;52.892;5.738;2022-09-23T04:26:55;25.20;;;14.55;;
61391;SDS011;47261;52.892;5.738;2022-09-23T04:29:21;26.23;;;15.55;;
61391;SDS011;47261;52.892;5.738;2022-09-23T04:31:48;27.35;;;15.70;;
61391;SDS011;47261;52.892;5.738;2022-09-23T04:34:14;31.00;;;15.67;;
61391;SDS011;47261;52.892;5.738;2022-09-23T04:36:41;28.52;;;16.85;;
61391;SDS011;47261;52.892;5.738;2022-09-23T04:39:09;27.05;;;16.40;;
61391;SDS011;47261;52.892;5.738;2022-09-23T04:41:35;31.23;;;16.70;;
61391;SDS011;47261;52.892;5.738;2022-09-23T04:44:01;28.23;;;15.63;;
61391;SDS011;47261;52.892;5.738;2022-09-23T04:46:27;28.60;;;16.37;;
61391;SDS011;47261;52.892;5.738;2022-09-23T04:48:53;26.45;;;15.40;;
61391;SDS011;47261;52.892;5.738;2022-09-23T04:51:19;31.42;;;17.20;;
61391;SDS011;47261;52.892;5.738;2022-09-23T04:53:49;27.90;;;15.27;;
61391;SDS011;47261;52.892;5.738;2022-09-23T04:56:19;30.85;;;14.95;;
61391;SDS011;47261;52.892;5.738;2022-09-23T04:58:46;26.85;;;14.70;;
61391;SDS011;47261;52.892;5.738;2022-09-23T05:01:20;32.70;;;16.17;;
61391;SDS011;47261;52.892;5.738;2022-09-23T05:04:00;33.25;;;18.05;;
61391;SDS011;47261;52.892;5.738;2022-09-23T05:06:29;31.23;;;16.87;;
61391;SDS011;47261;52.892;5.738;2022-09-23T05:08:59;31.02;;;17.33;;
61391;SDS011;47261;52.892;5.738;2022-09-23T05:11:25;31.90;;;16.40;;
61391;SDS011;47261;52.892;5.738;2022-09-23T05:13:53;29.90;;;16.92;;
61391;SDS011;47261;52.892;5.738;2022-09-23T05:16:19;33.75;;;16.88;;
61391;SDS011;47261;52.892;5.738;2022-09-23T05:18:47;32.53;;;17.00;;
61391;SDS011;47261;52.892;5.738;2022-09-23T05:21:23;30.75;;;18.50;;
61391;SDS011;47261;52.892;5.738;2022-09-23T05:23:51;33.15;;;18.45;;
61391;SDS011;47261;52.892;5.738;2022-09-23T05:26:19;32.13;;;16.95;;
61391;SDS011;47261;52.892;5.738;2022-09-23T05:28:46;29.23;;;17.00;;
61391;SDS011;47261;52.892;5.738;2022-09-23T05:31:12;29.33;;;17.63;;
61391;SDS011;47261;52.892;5.738;2022-09-23T05:33:41;30.60;;;17.77;;
61391;SDS011;47261;52.892;5.738;2022-09-23T05:36:08;28.98;;;16.33;;
61391;SDS011;47261;52.892;5.738;2022-09-23T05:38:34;28.88;;;16.40;;
61391;SDS011;47261;52.892;5.738;2022-09-23T05:41:01;27.63;;;16.03;;
61391;SDS011;47261;52.892;5.738;2022-09-23T05:43:29;28.77;;;16.88;;
61391;SDS011;47261;52.892;5.738;2022-09-23T05:46:02;32.45;;;16.42;;
61391;SDS011;47261;52.892;5.738;2022-09-23T05:48:33;31.42;;;16.25;;
61391;SDS011;47261;52.892;5.738;2022-09-23T05:51:00;32.35;;;17.92;;
61391;SDS011;47261;52.892;5.738;2022-09-23T05:53:26;32.43;;;17.30;;
61391;SDS011;47261;52.892;5.738;2022-09-23T05:55:54;29.92;;;17.10;;
61391;SDS011;47261;52.892;5.738;2022-09-23T05:58:21;23.20;;;14.88;;
61391;SDS011;47261;52.892;5.738;2022-09-23T06:00:48;29.15;;;17.73;;
61391;SDS011;47261;52.892;5.738;2022-09-23T06:03:15;30.50;;;18.65;;
61391;SDS011;47261;52.892;5.738;2022-09-23T06:05:42;31.50;;;17.63;;
61391;SDS011;47261;52.892;5.738;2022-09-23T06:08:08;29.30;;;18.17;;
61391;SDS011;47261;52.892;5.738;2022-09-23T06:10:38;33.05;;;17.13;;
61391;SDS011;47261;52.892;5.738;2022-09-23T06:13:06;32.25;;;17.13;;
61391;SDS011;47261;52.892;5.738;2022-09-23T06:15:32;28.50;;;17.07;;
61391;SDS011;47261;52.892;5.738;2022-09-23T06:17:59;26.40;;;15.82;;
61391;SDS011;47261;52.892;5.738;2022-09-23T06:20:25;26.58;;;15.23;;
61391;SDS011;47261;52.892;5.738;2022-09-23T06:22:51;29.00;;;14.48;;
61391;SDS011;47261;52.892;5.738;2022-09-23T06:25:17;28.47;;;14.97;;
61391;SDS011;47261;52.892;5.738;2022-09-23T06:27:43;23.95;;;14.80;;
61391;SDS011;47261;52.892;5.738;2022-09-23T06:30:20;25.48;;;14.98;;
61391;SDS011;47261;52.892;5.738;2022-09-23T06:32:50;25.15;;;14.90;;
61391;SDS011;47261;52.892;5.738;2022-09-23T06:35:20;27.70;;;17.05;;
61391;SDS011;47261;52.892;5.738;2022-09-23T06:37:50;27.07;;;15.30;;
61391;SDS011;47261;52.892;5.738;2022-09-23T06:40:20;24.85;;;14.30;;
61391;SDS011;47261;52.892;5.738;2022-09-23T06:42:55;24.83;;;15.75;;
61391;SDS011;47261;52.892;5.738;2022-09-23T06:45:25;27.23;;;16.30;;
61391;SDS011;47261;52.892;5.738;2022-09-23T06:47:56;32.03;;;18.40;;
61391;SDS011;47261;52.892;5.738;2022-09-23T06:50:25;30.93;;;17.30;;
61391;SDS011;47261;52.892;5.738;2022-09-23T06:52:52;30.80;;;16.52;;
61391;SDS011;47261;52.892;5.738;2022-09-23T06:55:20;26.27;;;16.40;;
61391;SDS011;47261;52.892;5.738;2022-09-23T06:57:47;25.80;;;15.52;;
61391;SDS011;47261;52.892;5.738;2022-09-23T07:00:13;31.40;;;16.43;;
61391;SDS011;47261;52.892;5.738;2022-09-23T07:02:39;26.00;;;15.60;;
61391;SDS011;47261;52.892;5.738;2022-09-23T07:05:06;25.63;;;14.70;;
61391;SDS011;47261;52.892;5.738;2022-09-23T07:07:33;23.13;;;14.35;;
61391;SDS011;47261;52.892;5.738;2022-09-23T07:10:00;26.53;;;14.67;;
61391;SDS011;47261;52.892;5.738;2022-09-23T07:12:26;25.63;;;14.23;;
61391;SDS011;47261;52.892;5.738;2022-09-23T07:14:52;24.23;;;14.13;;
61391;SDS011;47261;52.892;5.738;2022-09-23T07:17:17;23.50;;;13.30;;
61391;SDS011;47261;52.892;5.738;2022-09-23T07:19:43;24.30;;;14.03;;
61391;SDS011;47261;52.892;5.738;2022-09-23T07:22:08;24.63;;;13.65;;
61391;SDS011;47261;52.892;5.738;2022-09-23T07:24:34;22.73;;;13.67;;
61391;SDS011;47261;52.892;5.738;2022-09-23T07:27:00;24.08;;;13.45;;
61391;SDS011;47261;52.892;5.738;2022-09-23T07:29:26;21.60;;;12.37;;
61391;SDS011;47261;52.892;5.738;2022-09-23T07:31:52;22.10;;;13.30;;
61391;SDS011;47261;52.892;5.738;2022-09-23T07:34:18;22.07;;;12.93;;
61391;SDS011;47261;52.892;5.738;2022-09-23T07:36:43;21.63;;;13.05;;
61391;SDS011;47261;52.892;5.738;2022-09-23T07:39:10;24.30;;;13.60;;
61391;SDS011;47261;52.892;5.738;2022-09-23T07:41:36;21.48;;;13.13;;
61391;SDS011;47261;52.892;5.738;2022-09-23T07:44:02;20.87;;;12.73;;
61391;SDS011;47261;52.892;5.738;2022-09-23T07:46:30;24.38;;;13.25;;
61391;SDS011;47261;52.892;5.738;2022-09-23T07:48:58;25.42;;;13.40;;
61391;SDS011;47261;52.892;5.738;2022-09-23T07:51:25;22.35;;;12.77;;
61391;SDS011;47261;52.892;5.738;2022-09-23T07:53:53;22.20;;;12.98;;
61391;SDS011;47261;52.892;5.738;2022-09-23T07:56:20;25.00;;;13.40;;
61391;SDS011;47261;52.892;5.738;2022-09-23T07:58:49;21.33;;;12.85;;
61391;SDS011;47261;52.892;5.738;2022-09-23T08:01:24;22.13;;;11.30;;
61391;SDS011;47261;52.892;5.738;2022-09-23T08:03:52;20.23;;;12.13;;
61391;SDS011;47261;52.892;5.738;2022-09-23T08:06:18;23.43;;;12.60;;
61391;SDS011;47261;52.892;5.738;2022-09-23T08:08:44;19.05;;;11.52;;
61391;SDS011;47261;52.892;5.738;2022-09-23T08:11:12;20.30;;;11.85;;
61391;SDS011;47261;52.892;5.738;2022-09-23T08:13:38;21.30;;;11.65;;
61391;SDS011;47261;52.892;5.738;2022-09-23T08:16:04;21.33;;;11.53;;
61391;SDS011;47261;52.892;5.738;2022-09-23T08:18:30;21.73;;;11.88;;
61391;SDS011;47261;52.892;5.738;2022-09-23T08:20:56;19.45;;;11.80;;
61391;SDS011;47261;52.892;5.738;2022-09-23T08:23:22;18.02;;;10.60;;
61391;SDS011;47261;52.892;5.738;2022-09-23T08:25:48;21.03;;;11.20;;
61391;SDS011;47261;52.892;5.738;2022-09-23T08:28:25;19.88;;;10.18;;
61391;SDS011;47261;52.892;5.738;2022-09-23T08:30:51;21.27;;;10.82;;
61391;SDS011;47261;52.892;5.738;2022-09-23T08:33:17;20.47;;;10.47;;
61391;SDS011;47261;52.892;5.738;2022-09-23T08:35:43;18.70;;;10.48;;
61391;SDS011;47261;52.892;5.738;2022-09-23T08:38:09;16.73;;;9.77;;
61391;SDS011;47261;52.892;5.738;2022-09-23T08:40:38;17.63;;;10.63;;
61391;SDS011;47261;52.892;5.738;2022-09-23T08:43:10;20.88;;;9.95;;
61391;SDS011;47261;52.892;5.738;2022-09-23T08:45:51;21.60;;;10.27;;
61391;SDS011;47261;52.892;5.738;2022-09-23T08:48:26;15.93;;;10.00;;
61391;SDS011;47261;52.892;5.738;2022-09-23T08:51:22;17.17;;;10.63;;
61391;SDS011;47261;52.892;5.738;2022-09-23T08:54:06;17.20;;;11.50;;
61391;SDS011;47261;52.892;5.738;2022-09-23T08:56:36;15.55;;;9.82;;
61391;SDS011;47261;52.892;5.738;2022-09-23T09:02:12;19.60;;;10.30;;
61391;SDS011;47261;52.892;5.738;2022-09-23T09:04:43;16.83;;;9.07;;
61391;SDS011;47261;52.892;5.738;2022-09-23T09:07:17;16.08;;;10.50;;
61391;SDS011;47261;52.892;5.738;2022-09-23T09:09:46;17.35;;;10.75;;
61391;SDS011;47261;52.892;5.738;2022-09-23T09:15:17;19.15;;;9.20;;
61391;SDS011;47261;52.892;5.738;2022-09-23T09:23:02;18.85;;;10.15;;
61391;SDS011;47261;52.892;5.738;2022-09-23T09:25:51;18.20;;;10.52;;
61391;SDS011;47261;52.892;5.738;2022-09-23T09:28:22;16.88;;;10.18;;
61391;SDS011;47261;52.892;5.738;2022-09-23T09:30:55;18.23;;;11.53;;
61391;SDS011;47261;52.892;5.738;2022-09-23T09:33:26;19.02;;;10.63;;
61391;SDS011;47261;52.892;5.738;2022-09-23T09:38:40;18.02;;;10.90;;
61391;SDS011;47261;52.892;5.738;2022-09-23T09:41:15;22.97;;;11.40;;
61391;SDS011;47261;52.892;5.738;2022-09-23T09:43:45;17.63;;;11.23;;
61391;SDS011;47261;52.892;5.738;2022-09-23T09:49:10;18.25;;;10.60;;
61391;SDS011;47261;52.892;5.738;2022-09-23T09:54:40;20.53;;;11.80;;
61391;SDS011;47261;52.892;5.738;2022-09-23T09:57:13;17.35;;;11.32;;
61391;SDS011;47261;52.892;5.738;2022-09-23T10:02:52;17.63;;;12.38;;
61391;SDS011;47261;52.892;5.738;2022-09-23T10:05:24;22.25;;;12.05;;
61391;SDS011;47261;52.892;5.738;2022-09-23T10:10:49;19.52;;;11.57;;
61391;SDS011;47261;52.892;5.738;2022-09-23T10:13:19;19.52;;;11.93;;
61391;SDS011;47261;52.892;5.738;2022-09-23T10:15:48;20.48;;;12.93;;
61391;SDS011;47261;52.892;5.738;2022-09-23T10:18:19;29.65;;;12.93;;
61391;SDS011;47261;52.892;5.738;2022-09-23T10:20:50;23.13;;;12.00;;
61391;SDS011;47261;52.892;5.738;2022-09-23T10:23:17;23.63;;;12.93;;
61391;SDS011;47261;52.892;5.738;2022-09-23T10:25:56;21.65;;;12.70;;
61391;SDS011;47261;52.892;5.738;2022-09-23T10:31:11;26.53;;;11.50;;
61391;SDS011;47261;52.892;5.738;2022-09-23T10:33:40;19.52;;;11.95;;
61391;SDS011;47261;52.892;5.738;2022-09-23T10:36:15;27.30;;;13.02;;
61391;SDS011;47261;52.892;5.738;2022-09-23T10:38:42;21.52;;;12.50;;
61391;SDS011;47261;52.892;5.738;2022-09-23T10:44:34;20.97;;;12.57;;
61391;SDS011;47261;52.892;5.738;2022-09-23T10:47:44;21.58;;;12.52;;
61391;SDS011;47261;52.892;5.738;2022-09-23T10:58:43;20.33;;;12.40;;
61391;SDS011;47261;52.892;5.738;2022-09-23T11:12:28;21.80;;;13.27;;
61391;SDS011;47261;52.892;5.738;2022-09-23T11:24:04;20.50;;;11.55;;
61391;SDS011;47261;52.892;5.738;2022-09-23T11:32:11;24.08;;;14.68;;
61391;SDS011;47261;52.892;5.738;2022-09-23T11:37:43;22.67;;;13.82;;
61391;SDS011;47261;52.892;5.738;2022-09-23T11:48:42;19.52;;;12.65;;
61391;SDS011;47261;52.892;5.738;2022-09-23T11:56:20;18.17;;;12.70;;
61391;SDS011;47261;52.892;5.738;2022-09-23T12:01:47;23.13;;;14.23;;
61391;SDS011;47261;52.892;5.738;2022-09-23T12:04:34;19.15;;;13.35;;
61391;SDS011;47261;52.892;5.738;2022-09-23T12:15:12;21.07;;;13.80;;
61391;SDS011;47261;52.892;5.738;2022-09-23T12:25:56;22.55;;;13.73;;
61391;SDS011;47261;52.892;5.738;2022-09-23T12:28:31;23.70;;;13.73;;
61391;SDS011;47261;52.892;5.738;2022-09-23T12:31:08;22.48;;;13.57;;
61391;SDS011;47261;52.892;5.738;2022-09-23T12:33:37;23.73;;;13.07;;
61391;SDS011;47261;52.892;5.738;2022-09-23T12:36:07;25.48;;;14.95;;
61391;SDS011;47261;52.892;5.738;2022-09-23T12:38:50;21.17;;;13.53;;
61391;SDS011;47261;52.892;5.738;2022-09-23T12:43:51;23.38;;;14.82;;
61391;SDS011;47261;52.892;5.738;2022-09-23T12:46:23;23.80;;;14.35;;
61391;SDS011;47261;52.892;5.738;2022-09-23T12:51:24;25.50;;;14.30;;
61391;SDS011;47261;52.892;5.738;2022-09-23T12:53:55;21.45;;;14.65;;
61391;SDS011;47261;52.892;5.738;2022-09-23T12:56:55;22.55;;;14.77;;
61391;SDS011;47261;52.892;5.738;2022-09-23T12:59:29;27.77;;;15.77;;
61391;SDS011;47261;52.892;5.738;2022-09-23T13:01:57;29.48;;;14.90;;
61391;SDS011;47261;52.892;5.738;2022-09-23T13:04:55;22.70;;;14.03;;
61391;SDS011;47261;52.892;5.738;2022-09-23T13:07:46;29.33;;;15.15;;
61391;SDS011;47261;52.892;5.738;2022-09-23T13:12:49;24.70;;;15.88;;
61391;SDS011;47261;52.892;5.738;2022-09-23T13:15:27;25.35;;;15.38;;
61391;SDS011;47261;52.892;5.738;2022-09-23T13:18:21;24.10;;;15.70;;
61391;SDS011;47261;52.892;5.738;2022-09-23T13:20:48;23.15;;;14.43;;
61391;SDS011;47261;52.892;5.738;2022-09-23T13:23:27;24.45;;;15.27;;
61391;SDS011;47261;52.892;5.738;2022-09-23T13:26:01;22.48;;;14.90;;
61391;SDS011;47261;52.892;5.738;2022-09-23T13:28:52;28.38;;;15.63;;
61391;SDS011;47261;52.892;5.738;2022-09-23T13:31:20;23.60;;;15.33;;
61391;SDS011;47261;52.892;5.738;2022-09-23T13:33:48;26.45;;;14.48;;
61391;SDS011;47261;52.892;5.738;2022-09-23T13:36:17;25.10;;;16.02;;
61391;SDS011;47261;52.892;5.738;2022-09-23T13:38:44;22.88;;;14.40;;
61391;SDS011;47261;52.892;5.738;2022-09-23T13:41:23;22.95;;;13.75;;
61391;SDS011;47261;52.892;5.738;2022-09-23T13:43:53;19.10;;;13.17;;
61391;SDS011;47261;52.892;5.738;2022-09-23T13:46:29;24.23;;;15.10;;
61391;SDS011;47261;52.892;5.738;2022-09-23T13:49:04;28.38;;;15.15;;
61391;SDS011;47261;52.892;5.738;2022-09-23T13:51:33;24.80;;;15.18;;
61391;SDS011;47261;52.892;5.738;2022-09-23T13:54:00;23.02;;;15.23;;
61391;SDS011;47261;52.892;5.738;2022-09-23T13:56:28;25.07;;;16.37;;
61391;SDS011;47261;52.892;5.738;2022-09-23T14:01:49;25.50;;;16.20;;
61391;SDS011;47261;52.892;5.738;2022-09-23T14:04:26;28.17;;;17.48;;
61391;SDS011;47261;52.892;5.738;2022-09-23T14:06:52;27.93;;;15.10;;
61391;SDS011;47261;52.892;5.738;2022-09-23T14:09:18;23.98;;;15.32;;
61391;SDS011;47261;52.892;5.738;2022-09-23T14:11:51;23.48;;;16.17;;
61391;SDS011;47261;52.892;5.738;2022-09-23T14:14:18;28.95;;;15.40;;
61391;SDS011;47261;52.892;5.738;2022-09-23T14:16:46;24.30;;;14.73;;
61391;SDS011;47261;52.892;5.738;2022-09-23T14:19:18;25.55;;;14.63;;
61391;SDS011;47261;52.892;5.738;2022-09-23T14:21:47;29.67;;;15.32;;
61391;SDS011;47261;52.892;5.738;2022-09-23T14:29:31;20.73;;;14.53;;
61391;SDS011;47261;52.892;5.738;2022-09-23T14:31:59;25.08;;;15.13;;
61391;SDS011;47261;52.892;5.738;2022-09-23T14:35:06;25.42;;;14.93;;
61391;SDS011;47261;52.892;5.738;2022-09-23T14:37:32;24.75;;;14.32;;
61391;SDS011;47261;52.892;5.738;2022-09-23T14:40:21;21.92;;;13.80;;
61391;SDS011;47261;52.892;5.738;2022-09-23T14:43:02;21.13;;;12.87;;
61391;SDS011;47261;52.892;5.738;2022-09-23T14:45:34;22.45;;;13.18;;
61391;SDS011;47261;52.892;5.738;2022-09-23T14:48:09;22.10;;;13.70;;
61391;SDS011;47261;52.892;5.738;2022-09-23T14:50:43;21.73;;;13.40;;
61391;SDS011;47261;52.892;5.738;2022-09-23T14:55:51;22.80;;;13.40;;
61391;SDS011;47261;52.892;5.738;2022-09-23T14:58:25;26.02;;;13.80;;
61391;SDS011;47261;52.892;5.738;2022-09-23T15:00:57;24.98;;;13.70;;
61391;SDS011;47261;52.892;5.738;2022-09-23T15:03:24;20.35;;;13.30;;
61391;SDS011;47261;52.892;5.738;2022-09-23T15:05:59;22.20;;;14.32;;
61391;SDS011;47261;52.892;5.738;2022-09-23T15:08:28;26.53;;;15.40;;
61391;SDS011;47261;52.892;5.738;2022-09-23T15:10:57;23.40;;;13.93;;
61391;SDS011;47261;52.892;5.738;2022-09-23T15:13:28;25.40;;;14.25;;
61391;SDS011;47261;52.892;5.738;2022-09-23T15:15:56;18.67;;;12.57;;
61391;SDS011;47261;52.892;5.738;2022-09-23T15:18:24;22.13;;;13.65;;
61391;SDS011;47261;52.892;5.738;2022-09-23T15:21:00;26.90;;;14.60;;
61391;SDS011;47261;52.892;5.738;2022-09-23T15:23:48;21.30;;;13.90;;
61391;SDS011;47261;52.892;5.738;2022-09-23T15:26:17;21.25;;;13.63;;
61391;SDS011;47261;52.892;5.738;2022-09-23T15:28:44;22.42;;;13.65;;
61391;SDS011;47261;52.892;5.738;2022-09-23T15:31:11;22.55;;;14.27;;
61391;SDS011;47261;52.892;5.738;2022-09-23T15:33:40;23.63;;;13.97;;
61391;SDS011;47261;52.892;5.738;2022-09-23T15:36:09;25.05;;;13.52;;
61391;SDS011;47261;52.892;5.738;2022-09-23T15:38:42;18.92;;;12.48;;
61391;SDS011;47261;52.892;5.738;2022-09-23T15:41:08;22.73;;;13.80;;
61391;SDS011;47261;52.892;5.738;2022-09-23T15:43:33;20.97;;;13.33;;
61391;SDS011;47261;52.892;5.738;2022-09-23T15:46:04;22.10;;;12.32;;
61391;SDS011;47261;52.892;5.738;2022-09-23T15:48:36;21.00;;;11.77;;
61391;SDS011;47261;52.892;5.738;2022-09-23T15:51:05;20.50;;;12.90;;
61391;SDS011;47261;52.892;5.738;2022-09-23T15:53:33;20.80;;;12.20;;
61391;SDS011;47261;52.892;5.738;2022-09-23T15:56:01;21.88;;;11.15;;
61391;SDS011;47261;52.892;5.738;2022-09-23T15:58:26;19.23;;;11.70;;
61391;SDS011;47261;52.892;5.738;2022-09-23T16:00:53;24.60;;;11.27;;
61391;SDS011;47261;52.892;5.738;2022-09-23T16:03:20;22.55;;;12.15;;
61391;SDS011;47261;52.892;5.738;2022-09-23T16:05:48;23.92;;;12.30;;
61391;SDS011;47261;52.892;5.738;2022-09-23T16:08:14;17.37;;;11.67;;
61391;SDS011;47261;52.892;5.738;2022-09-23T16:10:40;18.67;;;11.27;;
61391;SDS011;47261;52.892;5.738;2022-09-23T16:13:09;17.90;;;11.55;;
61391;SDS011;47261;52.892;5.738;2022-09-23T16:15:36;18.40;;;11.57;;
61391;SDS011;47261;52.892;5.738;2022-09-23T16:18:06;17.25;;;11.02;;
61391;SDS011;47261;52.892;5.738;2022-09-23T16:20:34;18.43;;;12.37;;
61391;SDS011;47261;52.892;5.738;2022-09-23T16:23:07;25.08;;;11.85;;
61391;SDS011;47261;52.892;5.738;2022-09-23T16:25:58;19.25;;;12.00;;
61391;SDS011;47261;52.892;5.738;2022-09-23T16:28:25;20.23;;;12.48;;
61391;SDS011;47261;52.892;5.738;2022-09-23T16:30:51;24.87;;;13.17;;
61391;SDS011;47261;52.892;5.738;2022-09-23T16:33:16;24.70;;;13.53;;
61391;SDS011;47261;52.892;5.738;2022-09-23T16:35:42;22.20;;;13.30;;
61391;SDS011;47261;52.892;5.738;2022-09-23T16:38:08;22.63;;;13.43;;
61391;SDS011;47261;52.892;5.738;2022-09-23T16:40:33;23.63;;;13.40;;
61391;SDS011;47261;52.892;5.738;2022-09-23T16:42:59;29.23;;;12.77;;
61391;SDS011;47261;52.892;5.738;2022-09-23T16:45:28;20.55;;;12.43;;
61391;SDS011;47261;52.892;5.738;2022-09-23T16:47:55;21.90;;;12.77;;
61391;SDS011;47261;52.892;5.738;2022-09-23T16:50:21;22.00;;;11.37;;
61391;SDS011;47261;52.892;5.738;2022-09-23T16:52:48;27.45;;;13.00;;
61391;SDS011;47261;52.892;5.738;2022-09-23T16:55:21;22.55;;;12.57;;
61391;SDS011;47261;52.892;5.738;2022-09-23T16:57:51;22.05;;;12.52;;
61391;SDS011;47261;52.892;5.738;2022-09-23T17:00:18;22.83;;;11.88;;
61391;SDS011;47261;52.892;5.738;2022-09-23T17:03:03;20.00;;;11.87;;
61391;SDS011;47261;52.892;5.738;2022-09-23T17:05:47;21.08;;;11.57;;
61391;SDS011;47261;52.892;5.738;2022-09-23T17:08:14;27.40;;;13.07;;
61391;SDS011;47261;52.892;5.738;2022-09-23T17:10:41;23.67;;;12.05;;
61391;SDS011;47261;52.892;5.738;2022-09-23T17:13:19;21.80;;;11.93;;
61391;SDS011;47261;52.892;5.738;2022-09-23T17:15:44;19.37;;;11.60;;
61391;SDS011;47261;52.892;5.738;2022-09-23T17:18:10;17.53;;;10.83;;
61391;SDS011;47261;52.892;5.738;2022-09-23T17:20:35;20.95;;;11.35;;
61391;SDS011;47261;52.892;5.738;2022-09-23T17:23:02;18.55;;;11.70;;
61391;SDS011;47261;52.892;5.738;2022-09-23T17:25:29;19.37;;;11.70;;